• Join FlightAware (Why Join?)
  • Login
  • US Flag 
10:19AM EDT


 

Airport Tracker/Info


-or-


 

Live Flight TrackerFlight Track Log ✈ SWA442 ✈ 21-May-2012 ✈ KBWI - KPVD

Flight Track Log - Related Links

Times and Time Zones

All times are in EDT time to prevent confusion due to time zone crossing. See the SWA442 flight status page for this flight to view local times or setup timezone preferences in your user account.

Time Position Orientation Groundspeed Altitude Reporting Facility
EDT Latitude Longitude Course Direction KTS MPH feet Rate Location/Type
08:31AM 39.4220 -75.5674 247° West  Level FlightAware Approximate
08:32AM 39.4810 -75.4424 246° West  Level FlightAware Approximate
08:33AM 39.5398 -75.3172 245° Southwest  Level FlightAware Approximate
08:34AM 39.6457 -75.2819 241° Southwest  Level FlightAware Approximate
08:35AM 39.7042 -75.1561 241° Southwest  Level FlightAware Approximate
08:36AM 39.7625 -75.0301 240° Southwest  Level FlightAware Approximate
08:37AM 39.8207 -74.9038 240° Southwest  Level FlightAware Approximate
08:38AM 39.9280 -74.8688 237° Southwest  Level FlightAware Approximate
08:39AM 39.9880 -74.7438 237° Southwest  Level FlightAware Approximate
08:40AM 39.1311 -76.4478 82° East 399 459 9,300  Level Washington Center
08:43AM 39.1686 -76.0869 82° East 343 395 18,200 2,820 Climbing Washington Center
08:44AM 39.1839 -75.9531 63° Northeast 356 410 20,700 2,520 Climbing Washington Center
08:45AM 39.2319 -75.8300 45° Northeast 370 426 23,400 2,280 Climbing Washington Center
08:46AM 39.3156 -75.7231 45° Northeast 388 447 25,200 1,860 Climbing Washington Center
08:47AM 39.4031 -75.6103 45° Northeast 410 472 27,100 1,800 Climbing Washington Center
08:48AM 39.4928 -75.4947 46° Northeast 424 488 28,900 1,980 Climbing Washington Center
08:49AM 39.5781 -75.3814 46° Northeast 438 504 31,200 1,860 Climbing Washington Center
08:50AM 39.7136 -75.1994 49° Northeast 438 504 33,900 1,380 Climbing New York Center
08:51AM 39.8061 -75.0619 47° Northeast 450 518 35,000 540 Climbing New York Center
08:52AM 39.8917 -74.9428 49° Northeast 455 524 35,000  Level New York Center
08:53AM 39.9731 -74.8203 59° Northeast 449 517 35,000  Level New York Center
08:54AM 40.0294 -74.6961 63° Northeast 448 516 35,000  Level New York Center
08:55AM 40.0886 -74.5422 63° Northeast 436 502 35,000  Level New York Center
08:56AM 40.1475 -74.3933 63° Northeast 444 511 35,000  Level New York Center
08:57AM 40.2042 -74.2469 64° Northeast 444 511 35,000  Level New York Center
08:59AM 40.2972 -73.9964 63° Northeast 431 496 35,000 -720 Level Boston Center
09:00AM 40.3533 -73.8506 64° Northeast 431 496 33,100 -2,040 Descending Boston Center
09:01AM 40.4072 -73.7044 63° Northeast 431 496 31,000 -1,920 Descending Boston Center
09:02AM 40.4567 -73.5747 63° Northeast 436 502 29,300 -1,860 Descending Boston Center
09:03AM 40.5100 -73.4364 64° Northeast 430 495 27,300 -1,500 Descending Boston Center
09:04AM 40.5589 -73.3033 64° Northeast 416 479 26,400 -960 Descending Boston Center
09:05AM 40.6078 -73.1728 64° Northeast 405 466 25,400 -1,080 Descending Boston Center
09:06AM 40.6567 -73.0419 63° Northeast 395 455 24,300 -1,080 Descending Boston Center
09:07AM 40.7050 -72.9164 66° East 389 448 23,300 -1,020 Descending Boston Center
09:08AM 40.7472 -72.7881 64° Northeast 384 442 22,300 -1,020 Descending Boston Center
09:09AM 40.7933 -72.6622 64° Northeast 379 436 21,300 -1,020 Descending Boston Center
09:10AM 40.8372 -72.5417 65° Northeast 379 436 20,300 -1,380 Descending Boston Center
09:11AM 40.8833 -72.4100 60° Northeast 368 423 18,600 -1,680 Descending Boston Center
09:11AM 40.9042 -72.3631 69° East 359 413 17,800 -1,620 Descending Boston Center
09:12AM 40.9206 -72.3056 66° East 357 411 17,000 -1,920 Descending Boston Center
09:13AM 40.9600 -72.1872 66° East 352 405 15,000 -1,920 Descending Boston Center
09:14AM 40.9994 -72.0717 67° East 347 399 13,200 -1,800 Descending Boston Center
09:15AM 41.0364 -71.9586 58° Northeast 341 392 11,400 -1,620 Descending Boston Center
09:15AM 41.0653 -71.8978 48° Northeast 321 369 10,800 -1,080 Descending Boston Center
09:17AM 41.1192 -71.8175 51° Northeast 294 338 9,800 -1,260 Descending Boston Center
09:18AM 41.1708 -71.7342 51° Northeast 289 333 8,300 -1,500 Descending Boston Center
09:19AM 41.2264 -71.6425 50° Northeast 284 327 6,700 -1,380 Descending Boston Center
09:20AM 41.2778 -71.5617 40° Northeast 273 314 5,400 -960 Descending Boston Center
09:21AM 41.3336 -71.5003 38° Northeast 269 310 4,800 -1,080 Descending Boston Center
09:22AM 41.3936 -71.4383 35° Northeast 271 312 3,300 -1,380 Descending Boston Center
09:23AM 41.4533 -71.3822 37° Northeast 264 304 2,100 -720 Descending Boston Center
09:24AM 41.5092 -71.3258 26° Northeast 254 292 1,900 -120 Descending Boston Center
09:25AM 41.5631 -71.2914 338° Northwest 212 244 1,900  Level Boston Center
09:26AM 41.6194 -71.3211 325° Northwest 209 241 2,000 -240 Climbing Boston Center
09:27AM 41.6594 -71.3592 323° Northwest 177 204 1,500 -660 Descending Boston Center
09:28AM 41.6889 -71.3892 323° Northwest 147 169 800 -780 Descending Boston Center